Time;durP1;ratioP1;P1;durP2;ratioP2;P2;SDS_P1;SDS_P2;PMS_P1;PMS_P2;Temp;Humidity;BMP_temperature;BMP_pressure;BME280_temperature;BME280_humidity;BME280_pressure;Samples;Min_cycle;Max_cycle;Signal;HPM_P1;HPM_P2
2023/05/11 00:02:00;;;;;;;8.93;3.38;;;17.30;99.90;;;;;;5072316;28;20199;-82
2023/05/11 00:04:33;;;;;;;5.82;3.10;;;17.40;99.90;;;;;;5072270;28;20184;-81
2023/05/11 00:07:04;;;;;;;9.10;3.20;;;17.50;99.90;;;;;;5054876;28;20208;-81
2023/05/11 00:09:37;;;;;;;6.95;2.85;;;17.60;99.90;;;;;;5069998;28;20216;-83
2023/05/11 00:12:08;;;;;;;8.77;3.47;;;17.60;99.90;;;;;;5067745;28;20188;-82
2023/05/11 00:14:39;;;;;;;7.88;2.88;;;17.60;99.90;;;;;;5066403;28;20265;-82
2023/05/11 00:17:11;;;;;;;7.43;3.13;;;17.70;99.90;;;;;;5071990;28;20196;-83
2023/05/11 00:19:44;;;;;;;6.32;2.90;;;17.80;99.90;;;;;;5059201;28;20229;-83
2023/05/11 00:22:15;;;;;;;6.55;2.95;;;17.90;99.90;;;;;;5063068;28;20548;-84
2023/05/11 00:24:46;;;;;;;6.18;2.67;;;18.00;99.90;;;;;;5066422;28;20206;-82
2023/05/11 00:27:17;;;;;;;6.75;2.65;;;18.10;99.90;;;;;;5071980;28;20664;-83
2023/05/11 00:29:48;;;;;;;6.60;2.60;;;18.20;99.90;;;;;;5059433;28;20226;-83
2023/05/11 00:32:20;;;;;;;6.80;2.60;;;18.30;99.90;;;;;;5063447;28;20274;-82
2023/05/11 00:34:53;;;;;;;4.90;2.38;;;18.40;99.90;;;;;;5068362;28;20202;-83
2023/05/11 00:37:24;;;;;;;5.15;1.92;;;18.50;99.90;;;;;;5071845;28;20686;-84
2023/05/11 00:39:55;;;;;;;5.85;2.25;;;18.60;99.90;;;;;;5072935;28;20276;-82
2023/05/11 00:42:26;;;;;;;7.00;2.10;;;18.70;99.90;;;;;;5068526;28;20567;-83
2023/05/11 00:44:58;;;;;;;6.45;1.88;;;18.80;99.90;;;;;;5067358;28;20206;-82
2023/05/11 00:47:29;;;;;;;4.63;1.88;;;18.80;99.90;;;;;;5071146;28;20257;-81
2023/05/11 00:50:03;;;;;;;7.40;2.10;;;18.80;99.90;;;;;;5083207;28;20220;-83
2023/05/11 00:52:35;;;;;;;4.90;1.70;;;19.00;99.90;;;;;;5069122;28;20195;-83
2023/05/11 00:55:06;;;;;;;3.78;1.60;;;19.00;99.90;;;;;;5069646;28;20203;-83
2023/05/11 00:57:37;;;;;;;4.53;1.80;;;19.10;99.90;;;;;;5068074;28;20234;-83
2023/05/11 01:00:09;;;;;;;7.78;1.70;;;19.20;99.90;;;;;;5070944;28;20578;-82
2023/05/11 01:02:41;;;;;;;5.57;2.03;;;19.20;99.90;;;;;;5066789;28;20734;-82
2023/05/11 01:05:14;;;;;;;6.05;1.83;;;19.20;99.90;;;;;;5071193;28;20200;-82
2023/05/11 01:07:55;;;;;;;6.57;1.85;;;19.30;99.90;;;;;;5070203;28;20208;-82
2023/05/11 01:10:34;;;;;;;5.45;1.45;;;19.50;99.90;;;;;;5071514;28;20230;-82
2023/05/11 01:13:16;;;;;;;4.90;1.85;;;19.50;99.90;;;;;;5069020;28;20624;-83
2023/05/11 01:15:52;;;;;;;5.28;1.60;;;19.70;99.90;;;;;;5072331;28;20200;-82
2023/05/11 01:18:28;;;;;;;6.38;2.13;;;19.80;99.90;;;;;;5065858;28;20666;-82
2023/05/11 01:21:03;;;;;;;7.47;1.52;;;19.80;99.90;;;;;;5080975;28;20588;-83
2023/05/11 01:24:07;;;;;;;5.68;1.63;;;19.90;99.90;;;;;;5096956;28;20672;-83
2023/05/11 01:27:01;;;;;;;4.68;2.05;;;19.90;99.90;;;;;;5096686;28;20195;-82
2023/05/11 01:30:00;;;;;;;3.22;1.60;;;20.00;99.90;;;;;;5091073;28;20222;-82
2023/05/11 01:32:37;;;;;;;8.18;1.50;;;20.00;99.90;;;;;;5087741;28;20309;-82
2023/05/11 01:35:12;;;;;;;7.95;2.08;;;20.10;99.90;;;;;;5090866;28;20206;-82
2023/05/11 01:37:47;;;;;;;5.05;1.50;;;20.10;99.90;;;;;;5090951;28;20195;-82
2023/05/11 01:40:20;;;;;;;4.82;1.42;;;20.30;99.90;;;;;;5090545;28;20199;-83
2023/05/11 01:42:56;;;;;;;3.47;1.25;;;20.40;99.90;;;;;;5088995;28;20230;-82
2023/05/11 01:45:30;;;;;;;7.10;1.70;;;20.40;99.90;;;;;;5096048;28;20591;-82
2023/05/11 01:48:07;;;;;;;3.95;1.85;;;20.30;99.90;;;;;;5099921;28;21554;-81
2023/05/11 01:50:39;;;;;;;5.60;1.75;;;20.30;99.90;;;;;;5088997;28;20219;-81
2023/05/11 01:53:12;;;;;;;3.03;1.40;;;20.30;99.90;;;;;;5085017;28;20195;-80
2023/05/11 01:55:45;;;;;;;2.78;1.25;;;20.40;99.90;;;;;;5091106;28;20236;-82
2023/05/11 01:58:18;;;;;;;3.88;1.25;;;20.50;99.90;;;;;;5083983;28;20202;-82
2023/05/11 02:00:50;;;;;;;2.78;1.20;;;20.70;99.90;;;;;;5081177;28;20211;-83
2023/05/11 02:03:24;;;;;;;3.90;1.17;;;20.80;99.90;;;;;;5090596;28;20206;-81
2023/05/11 02:05:57;;;;;;;6.90;1.40;;;20.80;99.90;;;;;;5082415;28;20203;-83
2023/05/11 02:08:30;;;;;;;3.90;1.23;;;20.80;99.90;;;;;;5088958;28;20195;-82
2023/05/11 02:11:02;;;;;;;3.80;1.10;;;20.90;99.90;;;;;;5090642;28;20226;-81
2023/05/11 02:13:34;;;;;;;5.28;1.17;;;20.90;99.90;;;;;;5075785;28;20201;-82
2023/05/11 02:16:07;;;;;;;4.25;1.13;;;20.90;99.90;;;;;;5085648;28;20187;-82
2023/05/11 02:18:42;;;;;;;4.68;1.30;;;20.90;99.90;;;;;;5088310;28;20206;-82
2023/05/11 02:21:16;;;;;;;4.20;1.23;;;20.90;99.90;;;;;;5090096;28;20233;-82
2023/05/11 02:23:48;;;;;;;4.72;1.13;;;21.00;99.90;;;;;;5082332;28;20191;-83
2023/05/11 02:26:20;;;;;;;2.45;1.02;;;21.00;99.90;;;;;;5081022;28;20600;-83
2023/05/11 02:28:51;;;;;;;3.38;1.10;;;21.10;99.90;;;;;;5090433;28;20199;-83
2023/05/11 02:31:30;;;;;;;4.88;1.77;;;21.10;99.90;;;;;;5090825;28;20222;-81
2023/05/11 02:34:07;;;;;;;4.28;1.20;;;21.10;99.90;;;;;;5079321;28;20199;-82
2023/05/11 02:36:41;;;;;;;3.97;1.27;;;21.20;99.90;;;;;;5072222;28;20204;-83
2023/05/11 02:39:17;;;;;;;5.43;1.40;;;21.30;99.90;;;;;;5061810;28;20192;-83
2023/05/11 02:41:51;;;;;;;4.85;1.13;;;21.30;99.90;;;;;;5055926;28;20633;-83
2023/05/11 02:44:23;;;;;;;5.93;1.30;;;21.40;99.90;;;;;;5072767;28;20224;-82
2023/05/11 02:46:56;;;;;;;3.67;1.17;;;21.50;99.90;;;;;;5085214;28;20210;-82
2023/05/11 02:49:35;;;;;;;5.55;1.38;;;21.50;99.90;;;;;;5063518;28;20197;-83
2023/05/11 02:52:08;;;;;;;4.57;1.20;;;21.50;99.90;;;;;;5053369;28;20224;-82
2023/05/11 02:54:41;;;;;;;3.88;1.20;;;21.50;99.90;;;;;;5074864;28;20199;-82
2023/05/11 02:57:12;;;;;;;5.53;1.20;;;21.60;99.90;;;;;;5082557;28;20599;-82
2023/05/11 02:59:43;;;;;;;5.57;1.38;;;21.70;99.90;;;;;;5087366;28;20200;-82
2023/05/11 03:02:15;;;;;;;5.95;1.40;;;21.80;99.90;;;;;;5085650;28;20207;-82
2023/05/11 03:04:48;;;;;;;4.70;1.30;;;21.80;99.90;;;;;;5075997;28;20203;-83
2023/05/11 03:07:19;;;;;;;3.08;1.30;;;21.90;99.90;;;;;;5053201;28;20207;-85
2023/05/11 03:09:52;;;;;;;5.03;1.45;;;21.90;99.90;;;;;;5090212;28;20195;-83
2023/05/11 03:12:24;;;;;;;6.55;1.50;;;21.90;99.90;;;;;;5081566;28;20572;-83
2023/05/11 03:14:56;;;;;;;6.10;1.60;;;21.90;99.90;;;;;;5077597;28;20196;-83
2023/05/11 03:17:28;;;;;;;6.97;1.60;;;21.90;99.90;;;;;;5088772;28;20203;-83
2023/05/11 03:20:03;;;;;;;2.58;1.10;;;21.90;99.90;;;;;;5090530;28;20223;-83
2023/05/11 03:22:35;;;;;;;4.20;1.30;;;21.90;99.90;;;;;;5087873;28;20238;-82
2023/05/11 03:25:08;;;;;;;7.05;1.60;;;21.90;99.90;;;;;;5088942;28;20202;-83
2023/05/11 03:27:40;;;;;;;8.27;1.98;;;21.90;99.90;;;;;;5076210;28;20696;-82
2023/05/11 03:30:15;;;;;;;5.28;1.70;;;21.90;99.90;;;;;;5086319;28;20217;-85
2023/05/11 03:32:46;;;;;;;7.88;1.92;;;21.90;99.90;;;;;;5069458;28;20203;-82
2023/05/11 03:35:20;;;;;;;7.20;1.67;;;22.00;99.90;;;;;;5087010;28;20559;-83
2023/05/11 03:37:52;;;;;;;4.25;1.65;;;22.00;99.90;;;;;;5079948;28;20195;-83
2023/05/11 03:40:26;;;;;;;7.93;2.15;;;22.00;99.90;;;;;;5088401;28;20202;-82
2023/05/11 03:42:59;;;;;;;5.75;2.00;;;22.00;99.90;;;;;;5093264;28;20295;-83
2023/05/11 03:45:31;;;;;;;5.18;1.80;;;21.80;99.90;;;;;;5082507;28;20224;-84
2023/05/11 03:48:03;;;;;;;5.90;1.80;;;21.80;99.90;;;;;;5071631;28;20196;-84
2023/05/11 03:50:37;;;;;;;7.63;2.20;;;21.80;99.90;;;;;;5070995;28;20200;-84
2023/05/11 03:53:09;;;;;;;5.95;2.20;;;21.80;99.90;;;;;;5068762;28;20659;-83
2023/05/11 03:55:40;;;;;;;10.02;2.30;;;21.80;99.90;;;;;;5072841;28;20219;-83
2023/05/11 03:58:12;;;;;;;4.00;1.95;;;21.70;99.90;;;;;;5076668;28;20200;-83
2023/05/11 04:00:43;;;;;;;7.65;1.83;;;21.60;99.90;;;;;;5065946;28;20663;-83
2023/05/11 04:03:15;;;;;;;5.82;2.00;;;21.60;99.90;;;;;;5087469;28;20209;-82
2023/05/11 04:05:50;;;;;;;8.00;1.98;;;21.60;99.90;;;;;;5083873;28;20203;-82
2023/05/11 04:08:21;;;;;;;7.10;2.45;;;21.50;99.90;;;;;;5067948;28;20250;-82
2023/05/11 04:10:52;;;;;;;5.93;2.05;;;21.50;99.90;;;;;;5088360;28;20716;-84
2023/05/11 04:13:23;;;;;;;4.50;1.88;;;21.40;99.90;;;;;;5092356;28;20211;-83
2023/05/11 04:15:54;;;;;;;7.07;1.98;;;21.50;99.90;;;;;;5079513;28;20192;-83
2023/05/11 04:18:25;;;;;;;6.15;1.80;;;21.50;99.90;;;;;;5089303;28;20196;-83
2023/05/11 04:21:00;;;;;;;8.18;1.80;;;21.50;99.90;;;;;;5087489;28;20344;-83
2023/05/11 04:23:31;;;;;;;4.97;1.98;;;21.40;99.90;;;;;;5073307;28;20248;-83
2023/05/11 04:26:02;;;;;;;5.78;2.08;;;21.40;99.90;;;;;;5093396;28;20193;-83
2023/05/11 04:28:33;;;;;;;4.18;1.80;;;21.20;99.90;;;;;;5093153;28;20206;-81
2023/05/11 04:31:06;;;;;;;5.07;1.98;;;21.10;99.90;;;;;;5089617;28;20218;-84
2023/05/11 04:33:37;;;;;;;6.63;2.20;;;21.00;99.90;;;;;;5095569;28;20207;-83
2023/05/11 04:36:10;;;;;;;5.93;1.80;;;20.90;99.90;;;;;;5066574;28;20193;-82
2023/05/11 04:38:41;;;;;;;5.63;1.65;;;20.90;99.90;;;;;;5069122;28;20198;-82
2023/05/11 04:41:13;;;;;;;5.13;1.98;;;20.90;99.90;;;;;;5078759;28;20199;-83
2023/05/11 04:43:44;;;;;;;5.75;1.70;;;21.00;99.90;;;;;;5079654;28;20200;-82
2023/05/11 04:46:15;;;;;;;5.35;1.60;;;20.90;99.90;;;;;;5073047;28;20203;-83
2023/05/11 04:48:46;;;;;;;3.95;1.83;;;20.90;99.90;;;;;;5092856;28;20567;-83
2023/05/11 04:51:20;;;;;;;2.25;1.42;;;20.90;99.90;;;;;;5078151;28;20233;-82
2023/05/11 04:53:51;;;;;;;3.72;1.67;;;21.00;99.90;;;;;;5087625;28;20203;-83
2023/05/11 04:56:22;;;;;;;5.30;1.73;;;20.90;99.90;;;;;;5073263;28;20199;-82
2023/05/11 04:58:53;;;;;;;5.57;1.60;;;20.80;99.90;;;;;;5074406;28;20542;-83
2023/05/11 05:01:24;;;;;;;3.40;1.40;;;20.90;99.90;;;;;;5076465;28;20240;-82
2023/05/11 05:03:55;;;;;;;3.42;1.55;;;20.90;99.90;;;;;;5079555;28;20192;-82
2023/05/11 05:06:28;;;;;;;4.60;1.65;;;20.90;99.90;;;;;;5086837;28;20207;-82
2023/05/11 05:08:59;;;;;;;5.45;1.58;;;20.90;99.90;;;;;;5093133;28;20219;-82
2023/05/11 05:11:32;;;;;;;6.30;1.83;;;20.90;99.90;;;;;;5104432;28;20225;-84
2023/05/11 05:14:03;;;;;;;4.13;1.55;;;20.80;99.90;;;;;;5077067;28;20645;-83
2023/05/11 05:16:34;;;;;;;3.92;1.40;;;20.80;99.90;;;;;;5071823;28;20196;-83
2023/05/11 05:19:05;;;;;;;4.60;1.60;;;20.90;99.90;;;;;;5071260;28;20195;-83
2023/05/11 05:21:39;;;;;;;6.57;1.70;;;20.80;99.90;;;;;;5086390;28;20607;-82
2023/05/11 05:24:11;;;;;;;3.83;1.40;;;20.80;99.90;;;;;;5091724;28;20233;-83
2023/05/11 05:26:42;;;;;;;4.78;1.60;;;20.80;99.90;;;;;;5091804;28;20245;-83
2023/05/11 05:29:13;;;;;;;7.45;1.95;;;20.80;99.90;;;;;;5091517;28;20562;-83
2023/05/11 05:31:45;;;;;;;2.33;1.60;;;20.80;99.90;;;;;;5060833;28;20239;-82
2023/05/11 05:34:16;;;;;;;4.70;1.90;;;20.80;99.90;;;;;;5054146;28;20205;-82
2023/05/11 05:36:50;;;;;;;6.22;2.53;;;20.80;99.90;;;;;;5051710;28;20201;-83
2023/05/11 05:39:21;;;;;;;7.28;3.10;;;20.90;99.90;;;;;;5056825;28;20198;-82
2023/05/11 05:41:52;;;;;;;4.70;2.50;;;20.90;99.90;;;;;;5070906;28;20210;-82
2023/05/11 05:44:24;;;;;;;4.95;2.22;;;20.80;99.90;;;;;;5070745;28;20207;-82
2023/05/11 05:46:55;;;;;;;3.63;1.98;;;20.80;99.90;;;;;;5070578;28;20204;-82
2023/05/11 05:49:26;;;;;;;4.32;1.60;;;20.80;99.90;;;;;;5071347;28;20200;-83
2023/05/11 05:51:59;;;;;;;4.68;1.52;;;20.80;99.90;;;;;;5071286;28;20227;-83
2023/05/11 05:54:30;;;;;;;6.63;2.25;;;20.90;99.90;;;;;;5071282;28;20238;-82
2023/05/11 05:57:01;;;;;;;4.88;1.88;;;20.90;99.90;;;;;;5070854;28;20686;-82
2023/05/11 05:59:32;;;;;;;6.18;1.83;;;20.90;99.90;;;;;;5073136;28;20200;-82
2023/05/11 06:02:05;;;;;;;3.88;1.92;;;20.90;99.90;;;;;;5073833;28;20667;-82
2023/05/11 06:04:36;;;;;;;5.82;1.58;;;21.00;99.90;;;;;;5079106;28;20199;-83
2023/05/11 06:07:09;;;;;;;4.30;1.70;;;21.10;99.90;;;;;;5072388;28;20203;-84
2023/05/11 06:09:41;;;;;;;5.43;2.17;;;21.10;99.90;;;;;;5079997;28;20195;-83
2023/05/11 06:12:12;;;;;;;4.07;1.95;;;21.20;99.90;;;;;;5072572;28;20215;-82
2023/05/11 06:14:43;;;;;;;6.35;1.95;;;21.20;99.90;;;;;;5072626;28;20219;-83
2023/05/11 06:17:14;;;;;;;5.40;1.70;;;21.30;99.90;;;;;;5078257;28;20172;-82
2023/05/11 06:19:46;;;;;;;5.53;2.10;;;21.40;99.90;;;;;;5091135;28;20294;-81
2023/05/11 06:22:23;;;;;;;6.72;2.00;;;21.40;99.90;;;;;;5094170;28;20204;-83
2023/05/11 06:24:55;;;;;;;4.45;1.60;;;21.40;99.90;;;;;;5093009;28;20204;-83
2023/05/11 06:27:28;;;;;;;5.28;1.70;;;21.40;99.90;;;;;;5093148;28;20285;-82
2023/05/11 06:30:01;;;;;;;3.53;1.52;;;21.30;99.90;;;;;;5093221;28;20567;-82
2023/05/11 06:32:32;;;;;;;4.65;1.60;;;21.20;99.90;;;;;;5096260;28;20223;-82
2023/05/11 06:35:03;;;;;;;4.45;1.70;;;21.00;99.90;;;;;;5096367;28;20201;-81
2023/05/11 06:37:36;;;;;;;3.45;1.40;;;20.90;99.90;;;;;;5095632;28;20214;-82
2023/05/11 06:40:08;;;;;;;4.10;1.70;;;20.90;99.90;;;;;;5098229;28;20282;-84
2023/05/11 06:42:46;;;;;;;2.72;1.63;;;20.80;99.90;;;;;;5101532;28;20225;-84
2023/05/11 06:45:19;;;;;;;4.47;1.85;;;20.60;99.90;;;;;;5098469;28;20298;-82
2023/05/11 06:47:51;;;;;;;7.00;1.83;;;20.50;99.90;;;;;;5105866;28;20195;-82
2023/05/11 06:50:22;;;;;;;6.03;1.65;;;20.40;99.90;;;;;;5105228;28;20214;-82
2023/05/11 06:52:56;;;;;;;5.82;1.73;;;20.30;99.90;;;;;;5099469;28;20591;-82
2023/05/11 06:55:28;;;;;;;5.72;1.58;;;20.20;99.90;;;;;;5110158;28;20571;-82
2023/05/11 06:57:59;;;;;;;2.80;1.50;;;20.10;99.90;;;;;;5121748;28;20199;-83
2023/05/11 07:00:30;;;;;;;4.22;1.80;;;20.00;99.90;;;;;;5120299;28;20577;-83
2023/05/11 07:03:01;;;;;;;4.97;1.52;;;20.00;99.90;;;;;;5118499;28;20194;-82
2023/05/11 07:05:32;;;;;;;4.07;1.80;;;19.90;99.90;;;;;;5116072;28;20201;-81
2023/05/11 07:08:10;;;;;;;3.83;1.45;;;19.80;99.90;;;;;;5117156;28;20203;-82
2023/05/11 07:10:41;;;;;;;4.00;1.65;;;19.70;99.90;;;;;;5121209;28;20190;-83
2023/05/11 07:13:13;;;;;;;5.15;1.75;;;19.60;99.90;;;;;;5115005;28;20222;-82
2023/05/11 07:15:44;;;;;;;3.50;1.42;;;19.60;99.90;;;;;;5115664;28;20218;-82
2023/05/11 07:18:15;;;;;;;3.60;1.50;;;19.60;99.90;;;;;;5116985;28;20208;-81
2023/05/11 07:20:48;;;;;;;4.70;1.70;;;19.50;99.90;;;;;;5120265;28;20230;-82
2023/05/11 07:23:21;;;;;;;6.15;2.42;;;19.50;99.90;;;;;;5117890;28;20285;-82
2023/05/11 07:25:56;;;;;;;6.72;2.45;;;19.40;99.90;;;;;;5124696;28;20213;-79
2023/05/11 07:28:28;;;;;;;6.38;2.40;;;19.40;99.90;;;;;;5124343;28;20202;-82
2023/05/11 07:31:00;;;;;;;6.63;2.22;;;19.40;99.90;;;;;;5099211;28;20203;-82
2023/05/11 07:33:32;;;;;;;5.72;2.70;;;19.40;99.90;;;;;;5098246;28;20697;-83
2023/05/11 07:36:03;;;;;;;7.00;2.65;;;19.30;99.90;;;;;;5098618;28;20191;-84
2023/05/11 07:38:37;;;;;;;5.00;2.25;;;19.20;99.90;;;;;;5099478;28;20661;-84
2023/05/11 07:41:08;;;;;;;6.63;2.03;;;19.20;99.90;;;;;;5088626;28;20203;-83
2023/05/11 07:43:39;;;;;;;6.05;2.00;;;19.20;99.90;;;;;;5097269;28;20199;-83
2023/05/11 07:46:10;;;;;;;5.18;1.75;;;19.10;99.90;;;;;;5106097;28;20270;-84
2023/05/11 07:48:42;;;;;;;5.90;1.90;;;19.20;99.90;;;;;;5116819;28;20187;-83
2023/05/11 07:51:13;;;;;;;6.90;2.05;;;19.10;99.90;;;;;;5113867;28;20195;-83
2023/05/11 07:53:46;;;;;;;8.13;2.40;;;19.10;99.90;;;;;;5113747;28;20578;-83
2023/05/11 07:56:17;;;;;;;5.40;2.65;;;19.10;99.90;;;;;;5113332;28;20198;-82
2023/05/11 07:58:50;;;;;;;6.25;2.50;;;19.00;99.90;;;;;;5113488;28;20224;-85
2023/05/11 08:01:21;;;;;;;7.00;2.30;;;19.00;99.90;;;;;;5113485;28;20191;-83
2023/05/11 08:03:52;;;;;;;7.35;2.20;;;19.00;99.90;;;;;;5102097;28;20247;-84
2023/05/11 08:06:23;;;;;;;7.20;2.13;;;18.90;99.90;;;;;;5093149;28;20195;-82
2023/05/11 08:08:56;;;;;;;6.35;2.00;;;18.90;99.90;;;;;;5091008;28;20191;-83
2023/05/11 08:11:27;;;;;;;7.45;2.00;;;18.90;99.90;;;;;;5080866;28;20203;-84
2023/05/11 08:13:58;;;;;;;5.88;2.03;;;18.90;99.90;;;;;;5072797;28;20223;-83
2023/05/11 08:16:32;;;;;;;6.40;2.35;;;18.90;99.90;;;;;;5066971;28;20188;-83
2023/05/11 08:19:04;;;;;;;5.28;2.78;;;18.80;99.90;;;;;;5072888;28;20203;-82
2023/05/11 08:21:35;;;;;;;5.30;2.60;;;18.80;99.90;;;;;;5086647;28;20254;-84
2023/05/11 08:24:10;;;;;;;8.95;2.50;;;18.80;99.90;;;;;;5079563;28;20208;-83
2023/05/11 08:26:42;;;;;;;5.97;2.20;;;18.80;99.90;;;;;;5079303;28;20198;-83
2023/05/11 08:29:14;;;;;;;8.13;1.80;;;18.80;99.90;;;;;;5085026;28;20224;-82
2023/05/11 08:31:45;;;;;;;4.43;1.63;;;18.80;99.90;;;;;;5094834;28;20199;-83
2023/05/11 08:34:17;;;;;;;6.57;2.08;;;18.80;99.90;;;;;;5108559;28;20222;-83
2023/05/11 08:36:48;;;;;;;7.05;1.67;;;18.80;99.90;;;;;;5088350;28;20196;-82
2023/05/11 08:39:21;;;;;;;3.95;1.70;;;18.80;99.90;;;;;;5075755;28;20203;-83
2023/05/11 08:41:57;;;;;;;8.35;1.95;;;18.80;99.90;;;;;;5090871;28;20203;-82
2023/05/11 08:44:29;;;;;;;7.70;1.95;;;18.80;99.90;;;;;;5093039;28;20199;-83
2023/05/11 08:47:01;;;;;;;6.03;2.40;;;18.70;99.90;;;;;;5081732;28;20195;-82
2023/05/11 08:49:32;;;;;;;6.72;2.28;;;18.80;99.90;;;;;;5093683;28;20198;-82
2023/05/11 08:52:07;;;;;;;5.00;2.05;;;18.70;99.90;;;;;;5088405;28;20203;-83
2023/05/11 08:54:40;;;;;;;9.13;2.00;;;18.70;99.90;;;;;;5085750;28;20194;-83
2023/05/11 08:57:12;;;;;;;6.20;1.80;;;18.70;99.90;;;;;;5084956;28;20203;-82
2023/05/11 08:59:45;;;;;;;5.75;1.92;;;18.70;99.90;;;;;;5092062;28;20200;-83
2023/05/11 09:02:19;;;;;;;7.28;1.90;;;18.70;99.90;;;;;;5092387;28;20214;-82
2023/05/11 09:04:53;;;;;;;7.32;1.95;;;18.70;99.90;;;;;;5090612;28;20229;-83
2023/05/11 09:07:28;;;;;;;5.10;2.28;;;18.70;99.90;;;;;;5083841;28;20204;-83
2023/05/11 09:10:02;;;;;;;5.55;2.60;;;18.70;99.90;;;;;;5092744;28;20195;-83
2023/05/11 09:12:33;;;;;;;9.15;4.80;;;18.70;99.90;;;;;;5087007;28;20223;-84
2023/05/11 09:15:04;;;;;;;10.52;6.70;;;18.70;99.90;;;;;;5090238;28;20226;-83
2023/05/11 09:17:35;;;;;;;9.82;5.13;;;18.60;99.90;;;;;;5093646;28;20198;-82
2023/05/11 09:20:08;;;;;;;5.63;3.05;;;18.60;99.90;;;;;;5092387;28;20238;-83
2023/05/11 09:22:44;;;;;;;5.75;2.30;;;18.60;99.90;;;;;;5072988;28;20205;-83
2023/05/11 09:25:18;;;;;;;5.15;2.17;;;18.60;99.90;;;;;;5092162;28;20230;-83
2023/05/11 09:27:50;;;;;;;7.00;2.00;;;18.60;99.90;;;;;;5092206;28;20287;-83
2023/05/11 09:30:22;;;;;;;5.43;1.98;;;18.60;99.90;;;;;;5085489;28;20200;-83
2023/05/11 09:32:55;;;;;;;8.63;2.40;;;18.60;99.90;;;;;;5079942;28;20211;-83
2023/05/11 09:35:27;;;;;;;4.55;2.00;;;18.60;99.90;;;;;;5089589;28;20222;-84
2023/05/11 09:38:07;;;;;;;4.22;1.90;;;18.60;99.90;;;;;;5080961;28;20188;-83
2023/05/11 09:40:41;;;;;;;6.50;2.05;;;18.60;99.90;;;;;;5077034;28;20188;-83
2023/05/11 09:43:20;;;;;;;9.90;2.78;;;18.50;99.90;;;;;;5104839;28;20222;-85
2023/05/11 09:45:52;;;;;;;6.63;2.75;;;18.50;99.90;;;;;;5077152;28;20210;-83
2023/05/11 09:48:34;;;;;;;8.65;3.20;;;18.50;99.90;;;;;;5065425;28;20196;-83
2023/05/11 09:51:09;;;;;;;10.15;3.33;;;18.50;99.90;;;;;;5053648;28;20721;-83
2023/05/11 09:53:42;;;;;;;8.95;3.60;;;18.40;99.90;;;;;;5056953;28;20247;-82
2023/05/11 09:56:16;;;;;;;7.78;3.85;;;18.40;99.90;;;;;;5091556;28;20203;-84
2023/05/11 09:58:53;;;;;;;10.13;4.10;;;18.40;99.90;;;;;;5087308;28;20729;-84
2023/05/11 10:01:32;;;;;;;7.32;3.78;;;18.40;99.90;;;;;;5082378;28;20265;-84
2023/05/11 10:04:07;;;;;;;8.07;4.00;;;18.40;99.90;;;;;;5075022;28;20187;-83
2023/05/11 10:06:49;;;;;;;8.57;3.90;;;18.30;99.90;;;;;;5071002;28;20227;-82
2023/05/11 10:09:24;;;;;;;7.95;3.97;;;18.30;99.90;;;;;;5053707;28;20196;-82
2023/05/11 10:11:58;;;;;;;9.13;4.20;;;18.30;99.90;;;;;;5056222;28;20204;-82
2023/05/11 10:14:31;;;;;;;5.70;3.20;;;18.30;99.90;;;;;;5057254;28;20236;-82
2023/05/11 10:17:04;;;;;;;7.13;3.63;;;18.30;99.90;;;;;;5095213;28;20203;-83
2023/05/11 10:19:36;;;;;;;9.35;3.50;;;18.30;99.90;;;;;;5084528;28;20212;-82
2023/05/11 10:22:08;;;;;;;7.43;3.42;;;18.30;99.90;;;;;;5091145;28;20658;-83
2023/05/11 10:24:40;;;;;;;10.18;4.35;;;18.20;99.90;;;;;;5084864;28;20210;-82
2023/05/11 10:27:15;;;;;;;11.55;4.90;;;18.20;99.90;;;;;;5087084;28;20253;-84
2023/05/11 10:29:47;;;;;;;10.68;4.32;;;18.10;99.90;;;;;;5094735;28;20713;-84
2023/05/11 10:32:19;;;;;;;6.53;3.42;;;18.10;99.90;;;;;;5094715;28;20205;-83
2023/05/11 10:34:51;;;;;;;8.68;3.70;;;18.10;99.90;;;;;;5101427;28;20225;-82
2023/05/11 10:37:23;;;;;;;8.93;4.13;;;18.10;99.90;;;;;;5087042;28;20194;-83
2023/05/11 10:39:55;;;;;;;6.32;3.75;;;18.00;99.90;;;;;;5093655;28;20542;-83
2023/05/11 10:42:49;;;;;;;12.15;4.80;;;18.00;99.90;;;;;;5093489;28;20198;-83
2023/05/11 10:45:24;;;;;;;11.10;4.47;;;18.00;99.90;;;;;;5075894;28;20191;-82
2023/05/11 10:48:23;;;;;;;9.20;3.95;;;18.00;99.90;;;;;;5096176;28;20198;-82
2023/05/11 10:51:24;;;;;;;6.97;3.00;;;18.00;99.90;;;;;;5099556;28;20199;-83
2023/05/11 10:54:22;;;;;;;7.20;2.65;;;17.90;99.90;;;;;;5093898;28;20690;-84
2023/05/11 10:57:18;;;;;;;7.70;2.78;;;17.90;99.90;;;;;;5085932;28;20199;-82
2023/05/11 11:00:20;;;;;;;5.88;2.53;;;17.90;99.90;;;;;;5094800;28;20606;-83
2023/05/11 11:02:51;;;;;;;7.28;2.70;;;17.80;99.90;;;;;;5094318;28;20194;-82
2023/05/11 11:05:37;;;;;;;7.07;2.50;;;17.80;99.90;;;;;;5089282;28;20678;-82
2023/05/11 11:08:11;;;;;;;6.93;2.40;;;17.80;99.90;;;;;;5091648;28;20199;-83
2023/05/11 11:10:44;;;;;;;4.80;2.35;;;17.80;99.90;;;;;;5087754;28;20714;-82
2023/05/11 11:13:17;;;;;;;6.93;3.13;;;17.80;99.90;;;;;;5094627;28;20214;-83
2023/05/11 11:16:17;;;;;;;6.30;2.60;;;17.80;99.90;;;;;;5091976;28;20689;-83
2023/05/11 11:18:48;;;;;;;6.85;2.00;;;17.70;99.90;;;;;;5094993;28;20234;-82
2023/05/11 11:21:44;;;;;;;6.68;2.30;;;17.70;99.90;;;;;;5092364;28;20227;-82
2023/05/11 11:24:47;;;;;;;5.88;2.05;;;17.70;99.90;;;;;;5091317;28;20198;-82
2023/05/11 11:27:18;;;;;;;5.15;2.10;;;17.70;99.90;;;;;;5091357;28;20199;-82
2023/05/11 11:30:27;;;;;;;6.68;2.30;;;17.70;99.90;;;;;;5094186;28;20275;-81
2023/05/11 11:33:37;;;;;;;6.78;2.03;;;17.70;99.90;;;;;;5083115;28;20195;-82
2023/05/11 11:36:08;;;;;;;4.47;1.80;;;17.70;99.90;;;;;;5093113;28;20205;-82
2023/05/11 11:39:00;;;;;;;8.00;2.20;;;17.60;99.90;;;;;;5095076;28;20203;-83
2023/05/11 11:41:36;;;;;;;6.60;2.20;;;17.60;99.90;;;;;;5098411;28;20664;-81
2023/05/11 11:44:21;;;;;;;9.52;2.30;;;17.60;99.90;;;;;;5091393;28;20199;-82
2023/05/11 11:47:13;;;;;;;7.70;2.20;;;17.50;99.90;;;;;;5097373;28;20203;-81
2023/05/11 11:49:47;;;;;;;6.50;2.15;;;17.50;99.90;;;;;;5093445;28;20209;-83
2023/05/11 11:52:35;;;;;;;4.97;1.98;;;17.60;99.90;;;;;;5096292;28;20195;-81
2023/05/11 11:55:07;;;;;;;6.60;2.03;;;17.50;99.90;;;;;;5088771;28;20301;-82
2023/05/11 11:57:50;;;;;;;5.55;1.90;;;17.50;99.90;;;;;;5105762;28;20183;-82
2023/05/11 12:00:24;;;;;;;5.75;2.13;;;17.50;99.90;;;;;;5096865;28;20183;-82
2023/05/11 12:02:57;;;;;;;6.32;2.00;;;17.50;99.90;;;;;;5092210;28;20194;-82
2023/05/11 12:05:31;;;;;;;6.00;2.00;;;17.50;99.90;;;;;;5093587;28;20203;-83
2023/05/11 12:08:09;;;;;;;4.28;1.88;;;17.50;99.90;;;;;;5094838;28;20195;-82
2023/05/11 12:10:42;;;;;;;4.05;1.75;;;17.50;99.90;;;;;;5096130;28;20179;-82
2023/05/11 12:13:15;;;;;;;5.03;2.03;;;17.50;99.90;;;;;;5096350;28;20274;-82
2023/05/11 12:15:47;;;;;;;7.40;2.17;;;17.50;99.90;;;;;;5080944;28;20219;-81
2023/05/11 12:18:24;;;;;;;4.95;2.25;;;17.50;99.90;;;;;;5086408;28;20195;-82
2023/05/11 12:20:57;;;;;;;4.88;2.13;;;17.40;99.90;;;;;;5089114;28;20269;-82
2023/05/11 12:23:34;;;;;;;5.18;1.85;;;17.40;99.90;;;;;;5091153;28;20222;-81
2023/05/11 12:26:05;;;;;;;6.00;1.80;;;17.40;99.90;;;;;;5097429;28;20277;-83
2023/05/11 12:28:37;;;;;;;4.05;1.60;;;17.40;99.90;;;;;;5090152;28;20196;-83
2023/05/11 12:31:08;;;;;;;5.25;1.77;;;17.40;99.90;;;;;;5088605;28;20206;-83
2023/05/11 12:33:48;;;;;;;5.57;1.70;;;17.40;99.90;;;;;;5090528;28;20260;-83
2023/05/11 12:36:22;;;;;;;7.75;2.00;;;17.40;99.90;;;;;;5086012;28;20199;-82
2023/05/11 12:38:53;;;;;;;4.88;2.72;;;17.30;99.90;;;;;;5094207;28;20183;-83
2023/05/11 12:41:26;;;;;;;5.47;2.38;;;17.30;99.90;;;;;;5093138;28;20203;-83
2023/05/11 12:43:57;;;;;;;8.70;2.50;;;17.30;99.90;;;;;;5093698;28;20213;-83
2023/05/11 12:46:28;;;;;;;6.15;2.08;;;17.30;99.90;;;;;;5089303;28;20227;-83
2023/05/11 12:49:00;;;;;;;6.53;2.63;;;17.20;99.90;;;;;;5092818;28;20199;-83
2023/05/11 12:51:52;;;;;;;5.95;2.20;;;17.10;99.90;;;;;;5084234;28;20601;-83
2023/05/11 12:54:34;;;;;;;6.80;2.20;;;17.10;99.90;;;;;;5113748;28;20226;-83
2023/05/11 12:57:09;;;;;;;6.47;2.00;;;17.00;99.90;;;;;;5090885;28;20192;-83
2023/05/11 12:59:42;;;;;;;7.40;1.92;;;17.00;99.90;;;;;;5090623;28;20194;-84
2023/05/11 13:02:16;;;;;;;4.10;1.67;;;17.00;99.90;;;;;;5082295;28;20198;-83
2023/05/11 13:04:47;;;;;;;7.18;2.00;;;17.00;99.90;;;;;;5097562;28;20200;-82
2023/05/11 13:07:31;;;;;;;7.65;2.13;;;17.10;99.90;;;;;;5093706;28;20207;-82
2023/05/11 13:10:02;;;;;;;5.95;2.30;;;17.00;99.90;;;;;;5086452;28;20630;-82
2023/05/11 13:12:34;;;;;;;6.53;2.20;;;16.90;99.90;;;;;;5086066;28;20226;-82
2023/05/11 13:15:10;;;;;;;6.47;2.65;;;17.00;99.90;;;;;;5089925;28;20231;-83
2023/05/11 13:17:42;;;;;;;6.45;2.40;;;16.90;99.90;;;;;;5092871;28;20240;-82
2023/05/11 13:20:22;;;;;;;6.63;2.80;;;16.80;99.90;;;;;;5080784;28;20250;-83
2023/05/11 13:23:06;;;;;;;7.97;2.53;;;16.80;99.90;;;;;;5068115;28;20621;-83